createdAt,value
2023-03-10T00:01:24.060Z,99926.84
2023-03-10T00:03:52.680Z,99924.00
2023-03-10T00:06:22.526Z,99921.34
2023-03-10T00:08:50.951Z,99923.34
2023-03-10T00:11:19.021Z,99925.38
2023-03-10T00:13:48.141Z,99927.34
2023-03-10T00:16:22.475Z,99927.69
2023-03-10T00:18:54.018Z,99929.19
2023-03-10T00:21:25.847Z,99926.03
2023-03-10T00:23:56.943Z,99917.53
2023-03-10T00:26:28.099Z,99919.56
2023-03-10T00:28:56.120Z,99907.97
2023-03-10T00:31:26.679Z,99911.06
2023-03-10T00:33:56.375Z,99913.97
2023-03-10T00:36:28.432Z,99908.97
2023-03-10T00:38:57.906Z,99906.56
2023-03-10T00:41:33.613Z,99904.69
2023-03-10T00:44:01.655Z,99912.13
2023-03-10T00:46:30.206Z,99926.69
2023-03-10T00:48:57.793Z,99934.50
2023-03-10T00:51:26.915Z,99918.84
2023-03-10T00:53:57.058Z,99925.69
2023-03-10T00:56:25.814Z,99929.97
2023-03-10T00:58:56.372Z,99918.28
2023-03-10T01:01:27.414Z,99916.81
2023-03-10T01:03:57.046Z,99911.72
2023-03-10T01:06:25.009Z,99906.38
2023-03-10T01:08:54.841Z,99905.16
2023-03-10T01:11:26.490Z,99897.03
2023-03-10T01:14:00.698Z,99901.84
2023-03-10T01:16:28.946Z,99900.19
2023-03-10T01:18:57.221Z,99905.91
2023-03-10T01:21:30.350Z,99895.56
2023-03-10T01:23:58.082Z,99898.16
2023-03-10T01:26:25.583Z,99883.94
2023-03-10T01:28:53.285Z,99887.88
2023-03-10T01:31:21.515Z,99885.84
2023-03-10T01:33:49.846Z,99890.56
2023-03-10T01:36:20.314Z,99880.91
2023-03-10T01:38:48.985Z,99884.78
2023-03-10T01:41:17.600Z,99893.53
2023-03-10T01:43:47.647Z,99904.53
2023-03-10T01:46:37.404Z,99906.91
2023-03-10T01:49:11.655Z,99914.94
2023-03-10T01:51:43.206Z,99916.25
2023-03-10T01:54:17.096Z,99914.28
2023-03-10T01:56:47.341Z,99921.41
2023-03-10T01:59:15.032Z,99915.31
2023-03-10T02:01:42.922Z,99912.06
2023-03-10T02:04:35.424Z,99900.34
2023-03-10T02:07:06.411Z,99890.56
2023-03-10T02:09:39.122Z,99900.13
2023-03-10T02:12:08.288Z,99907.25
2023-03-10T02:14:41.283Z,99910.69
2023-03-10T02:17:13.888Z,99911.03
2023-03-10T02:20:13.184Z,99911.59
2023-03-10T02:22:41.749Z,99913.47
2023-03-10T02:25:33.151Z,99911.78
2023-03-10T02:28:00.744Z,99916.13
2023-03-10T02:30:39.143Z,99922.50
2023-03-10T02:33:12.120Z,99913.81
2023-03-10T02:35:40.125Z,99927.28
2023-03-10T02:38:07.575Z,99936.91
2023-03-10T02:40:40.379Z,99931.34
2023-03-10T02:43:14.318Z,99938.56
2023-03-10T02:45:44.600Z,99921.19
2023-03-10T02:48:34.218Z,99926.06
2023-03-10T02:51:05.856Z,99924.91
2023-03-10T02:53:33.635Z,99917.16
2023-03-10T02:56:01.177Z,99920.00
2023-03-10T02:58:31.167Z,99921.47
2023-03-10T03:00:59.322Z,99927.41
2023-03-10T03:03:27.184Z,99930.28
2023-03-10T03:05:54.613Z,99936.66
2023-03-10T03:08:30.106Z,99937.50
2023-03-10T03:10:57.674Z,99931.94
2023-03-10T03:13:25.395Z,99937.03
2023-03-10T03:15:52.767Z,99932.50
2023-03-10T03:18:20.589Z,99932.78
2023-03-10T03:20:48.060Z,99927.31
2023-03-10T03:23:17.419Z,99927.88
2023-03-10T03:25:44.813Z,99934.78
2023-03-10T03:28:12.710Z,99925.91
2023-03-10T03:30:40.739Z,99921.69
2023-03-10T03:33:08.690Z,99928.31
2023-03-10T03:35:38.248Z,99937.72
2023-03-10T03:38:06.642Z,99941.63
2023-03-10T03:40:36.754Z,99951.13
2023-03-10T03:43:05.291Z,99954.28
2023-03-10T03:45:38.128Z,99942.75
2023-03-10T03:48:05.729Z,99950.84
2023-03-10T03:50:33.243Z,99954.97
2023-03-10T03:53:00.641Z,99951.41
2023-03-10T03:55:29.009Z,99950.63
2023-03-10T03:58:00.740Z,99950.75
2023-03-10T04:00:28.166Z,99947.88
2023-03-10T04:02:56.414Z,99953.41
2023-03-10T04:05:26.610Z,99952.34
2023-03-10T04:07:55.233Z,99951.66
2023-03-10T04:10:28.486Z,99956.78
2023-03-10T04:12:57.160Z,99966.06
2023-03-10T04:15:24.808Z,99967.47
2023-03-10T04:17:53.958Z,99974.09
2023-03-10T04:20:21.364Z,99975.84
2023-03-10T04:22:49.334Z,99969.31
2023-03-10T04:25:16.892Z,99966.88
2023-03-10T04:27:44.481Z,99961.53
2023-03-10T04:30:14.348Z,99969.00
2023-03-10T04:32:42.780Z,99966.06
2023-03-10T04:35:13.438Z,99967.72
2023-03-10T04:37:41.231Z,99973.44
2023-03-10T04:40:13.133Z,99972.56
2023-03-10T04:42:40.666Z,99979.34
2023-03-10T04:45:08.784Z,99974.91
2023-03-10T04:47:38.074Z,99975.19
2023-03-10T04:50:07.229Z,99981.47
2023-03-10T04:52:34.865Z,99986.28
2023-03-10T04:55:02.382Z,99981.72
2023-03-10T04:57:30.178Z,99977.09
2023-03-10T04:59:57.677Z,99970.94
2023-03-10T05:02:25.352Z,99973.91
2023-03-10T05:04:53.188Z,99983.50
2023-03-10T05:07:21.524Z,99989.22
2023-03-10T05:09:49.642Z,99981.63
2023-03-10T05:12:17.151Z,99987.13
2023-03-10T05:14:44.895Z,99993.16
2023-03-10T05:17:12.648Z,99997.44
2023-03-10T05:19:40.453Z,99998.81
2023-03-10T05:22:11.654Z,99999.75
2023-03-10T05:24:43.000Z,100003.16
2023-03-10T05:27:10.674Z,100013.47
2023-03-10T05:29:39.307Z,100014.31
2023-03-10T05:32:07.693Z,100008.50
2023-03-10T05:34:38.887Z,100007.91
2023-03-10T05:37:06.405Z,100020.81
2023-03-10T05:39:34.258Z,100017.69
2023-03-10T05:42:01.756Z,100022.88
2023-03-10T05:44:29.479Z,100017.41
2023-03-10T05:47:02.262Z,100024.66
2023-03-10T05:49:30.895Z,100028.53
2023-03-10T05:51:58.941Z,100036.69
2023-03-10T05:54:26.800Z,100041.50
2023-03-10T05:56:54.293Z,100038.94
2023-03-10T05:59:21.785Z,100032.72
2023-03-10T06:01:49.181Z,100036.03
2023-03-10T06:04:16.631Z,100036.34
2023-03-10T06:06:44.192Z,100045.53
2023-03-10T06:09:12.284Z,100048.84
2023-03-10T06:11:42.173Z,100049.41
2023-03-10T06:14:10.223Z,100047.84
2023-03-10T06:16:40.239Z,100054.25
2023-03-10T06:19:11.216Z,100059.28
2023-03-10T06:21:38.634Z,100061.13
2023-03-10T06:24:06.159Z,100067.38
2023-03-10T06:26:34.780Z,100074.47
2023-03-10T06:29:02.242Z,100072.59
2023-03-10T06:31:34.660Z,100080.03
2023-03-10T06:34:04.394Z,100073.50
2023-03-10T06:36:32.721Z,100072.97
2023-03-10T06:39:00.249Z,100078.06
2023-03-10T06:41:28.248Z,100085.03
2023-03-10T06:43:55.680Z,100094.16
2023-03-10T06:46:25.617Z,100095.56
2023-03-10T06:48:53.739Z,100091.16
2023-03-10T06:51:22.452Z,100091.28
2023-03-10T06:53:51.867Z,100091.09
2023-03-10T06:56:21.968Z,100096.09
2023-03-10T06:58:49.768Z,100103.78
2023-03-10T07:01:24.484Z,100105.06
2023-03-10T07:03:53.236Z,100104.59
2023-03-10T07:06:24.665Z,100108.38
2023-03-10T07:09:11.960Z,100114.44
2023-03-10T07:11:39.599Z,100116.25
2023-03-10T07:14:07.550Z,100113.75
2023-03-10T07:16:34.994Z,100113.13
2023-03-10T07:19:02.395Z,100113.19
2023-03-10T07:21:36.224Z,100111.91
2023-03-10T07:24:04.142Z,100114.41
2023-03-10T07:26:32.058Z,100111.50
2023-03-10T07:29:02.624Z,100117.09
2023-03-10T07:31:30.934Z,100126.66
2023-03-10T07:33:59.088Z,100126.03
2023-03-10T07:36:30.091Z,100134.53
2023-03-10T07:38:57.650Z,100141.16
2023-03-10T07:41:25.260Z,100138.22
2023-03-10T07:43:54.580Z,100148.66
2023-03-10T07:46:22.446Z,100136.22
2023-03-10T07:48:49.930Z,100142.00
2023-03-10T07:51:18.039Z,100145.72
2023-03-10T07:53:45.484Z,100140.56
2023-03-10T07:56:14.509Z,100139.09
2023-03-10T07:58:42.288Z,100146.13
2023-03-10T08:01:15.313Z,100146.78
2023-03-10T08:03:43.265Z,100153.63
2023-03-10T08:06:20.343Z,100148.03
2023-03-10T08:08:49.966Z,100152.78
2023-03-10T08:11:18.007Z,100166.28
2023-03-10T08:13:47.601Z,100166.28
2023-03-10T08:16:17.389Z,100163.59
2023-03-10T08:18:45.684Z,100174.16
2023-03-10T08:21:13.232Z,100180.09
2023-03-10T08:23:44.991Z,100178.47
2023-03-10T08:26:17.257Z,100184.66
2023-03-10T08:28:45.025Z,100177.53
2023-03-10T08:31:16.222Z,100183.38
2023-03-10T08:33:46.779Z,100182.75
2023-03-10T08:36:18.314Z,100180.47
2023-03-10T08:38:46.845Z,100181.44
2023-03-10T08:41:24.232Z,100185.44
2023-03-10T08:43:53.647Z,100182.56
2023-03-10T08:46:23.034Z,100179.81
2023-03-10T08:48:50.995Z,100177.50
2023-03-10T08:51:18.734Z,100184.91
2023-03-10T08:53:49.073Z,100192.25
2023-03-10T08:56:18.112Z,100183.53
2023-03-10T08:58:46.110Z,100187.09
2023-03-10T09:01:17.675Z,100180.88
2023-03-10T09:03:46.368Z,100178.25
2023-03-10T09:06:14.928Z,100177.03
2023-03-10T09:08:44.036Z,100180.72
2023-03-10T09:11:16.891Z,100186.59
2023-03-10T09:13:44.468Z,100187.53
2023-03-10T09:16:13.527Z,100191.47
2023-03-10T09:18:41.672Z,100190.03
2023-03-10T09:21:12.039Z,100190.63
2023-03-10T09:23:42.357Z,100187.91
2023-03-10T09:26:10.100Z,100195.38
2023-03-10T09:28:42.318Z,100196.75
2023-03-10T09:31:17.430Z,100191.97
2023-03-10T09:33:46.535Z,100194.63
2023-03-10T09:36:17.333Z,100197.34
2023-03-10T09:38:45.493Z,100204.44
2023-03-10T09:41:43.640Z,100190.91
2023-03-10T09:44:43.464Z,100189.34
2023-03-10T09:47:20.147Z,100185.78
2023-03-10T09:50:13.256Z,100187.19
2023-03-10T09:52:57.735Z,100190.84
2023-03-10T09:55:47.384Z,100189.59
2023-03-10T09:58:36.690Z,100198.19
2023-03-10T10:01:06.356Z,100184.66
2023-03-10T10:03:53.096Z,100184.78
2023-03-10T10:06:48.236Z,100171.50
2023-03-10T10:09:42.376Z,100171.97
2023-03-10T10:12:17.468Z,100168.63
2023-03-10T10:14:55.270Z,100163.38
2023-03-10T10:17:52.945Z,100158.94
2023-03-10T10:20:33.628Z,100158.50
2023-03-10T10:23:01.578Z,100162.56
2023-03-10T10:25:32.892Z,100156.03
2023-03-10T10:28:02.436Z,100161.34
2023-03-10T10:30:39.661Z,100162.75
2023-03-10T10:33:14.780Z,100158.63
2023-03-10T10:36:00.768Z,100161.47
2023-03-10T10:38:31.397Z,100164.94
2023-03-10T10:41:07.202Z,100156.16
2023-03-10T10:43:45.484Z,100164.13
2023-03-10T10:46:15.713Z,100155.53
2023-03-10T10:48:46.332Z,100160.13
2023-03-10T10:51:29.584Z,100157.38
2023-03-10T10:54:04.523Z,100160.81
2023-03-10T10:56:32.507Z,100158.16
2023-03-10T10:59:18.630Z,100155.16
2023-03-10T11:01:56.265Z,100155.50
2023-03-10T11:04:26.677Z,100154.09
2023-03-10T11:07:11.687Z,100158.38
2023-03-10T11:09:41.724Z,100151.94
2023-03-10T11:12:31.394Z,100149.31
2023-03-10T11:15:36.827Z,100147.22
2023-03-10T11:18:22.847Z,100150.53
2023-03-10T11:21:09.205Z,100150.84
2023-03-10T11:24:00.218Z,100150.72
2023-03-10T11:26:46.245Z,100149.59
2023-03-10T11:29:28.783Z,100164.72
2023-03-10T11:32:19.347Z,100158.47
2023-03-10T11:34:51.936Z,100157.78
2023-03-10T11:38:02.614Z,100163.91
2023-03-10T11:40:48.833Z,100155.56
2023-03-10T11:43:23.457Z,100165.97
2023-03-10T11:45:54.405Z,100168.47
2023-03-10T11:48:46.813Z,100165.56
2023-03-10T11:51:24.698Z,100177.63
2023-03-10T11:53:58.880Z,100169.56
2023-03-10T11:56:27.708Z,100182.25
2023-03-10T11:59:05.871Z,100183.88
2023-03-10T12:01:53.885Z,100181.63
2023-03-10T12:04:56.772Z,100183.13
2023-03-10T12:07:40.259Z,100183.06
2023-03-10T12:10:11.698Z,100193.03
2023-03-10T12:12:42.972Z,100191.59
2023-03-10T12:15:22.497Z,100199.16
2023-03-10T12:17:55.144Z,100197.66
2023-03-10T12:20:24.820Z,100199.72
2023-03-10T12:23:11.403Z,100200.75
2023-03-10T12:25:39.256Z,100201.63
2023-03-10T12:28:29.239Z,100199.22
2023-03-10T12:31:10.568Z,100193.44
2023-03-10T12:33:49.800Z,100199.16
2023-03-10T12:36:37.510Z,100192.53
2023-03-10T12:39:38.063Z,100191.56
2023-03-10T12:42:27.260Z,100192.75
2023-03-10T12:45:21.462Z,100203.88
2023-03-10T12:48:17.910Z,100192.59
2023-03-10T12:51:00.724Z,100198.94
2023-03-10T12:53:55.073Z,100196.91
2023-03-10T12:56:38.725Z,100207.13
2023-03-10T12:59:17.124Z,100198.31
2023-03-10T13:01:55.524Z,100203.63
2023-03-10T13:04:32.196Z,100208.44
2023-03-10T13:07:04.189Z,100203.50
2023-03-10T13:09:43.763Z,100209.09
2023-03-10T13:12:26.504Z,100211.31
2023-03-10T13:14:58.273Z,100208.44
2023-03-10T13:17:31.029Z,100214.34
2023-03-10T13:20:01.884Z,100213.72
2023-03-10T13:22:29.862Z,100212.56
2023-03-10T13:25:03.060Z,100209.47
2023-03-10T13:27:33.612Z,100212.66
2023-03-10T13:30:15.233Z,100212.06
2023-03-10T13:32:59.417Z,100207.25
2023-03-10T13:35:38.484Z,100203.22
2023-03-10T13:38:11.751Z,100216.47
2023-03-10T13:40:58.120Z,100200.53
2023-03-10T13:43:36.564Z,100208.84
2023-03-10T13:46:10.599Z,100205.94
2023-03-10T13:48:42.606Z,100209.28
2023-03-10T13:51:18.237Z,100196.81
2023-03-10T13:53:48.077Z,100201.06
2023-03-10T13:56:23.660Z,100192.91
2023-03-10T13:58:54.517Z,100196.31
2023-03-10T14:01:28.078Z,100194.72
2023-03-10T14:03:59.159Z,100197.84
2023-03-10T14:06:29.658Z,100196.22
2023-03-10T14:09:13.205Z,100191.88
2023-03-10T14:11:42.853Z,100197.69
2023-03-10T14:14:11.949Z,100196.13
2023-03-10T14:16:45.656Z,100198.34
2023-03-10T14:19:34.720Z,100206.03
2023-03-10T14:22:02.554Z,100207.25
2023-03-10T14:24:30.170Z,100199.59
2023-03-10T14:27:01.180Z,100198.47
2023-03-10T14:29:30.863Z,100206.81
2023-03-10T14:31:59.970Z,100209.78
2023-03-10T14:34:27.553Z,100215.78
2023-03-10T14:36:55.188Z,100211.81
2023-03-10T14:39:24.242Z,100208.31
2023-03-10T14:41:51.727Z,100219.88
2023-03-10T14:44:20.497Z,100220.38
2023-03-10T14:46:53.128Z,100218.50
2023-03-10T14:49:24.181Z,100228.91
2023-03-10T14:51:51.687Z,100234.09
2023-03-10T14:54:24.681Z,100222.59
2023-03-10T14:56:59.305Z,100230.94
2023-03-10T14:59:28.376Z,100238.56
2023-03-10T15:02:02.257Z,100238.72
2023-03-10T15:04:29.879Z,100238.91
2023-03-10T15:06:57.225Z,100245.91
2023-03-10T15:09:24.604Z,100244.75
2023-03-10T15:11:54.726Z,100252.19
2023-03-10T15:14:22.137Z,100253.47
2023-03-10T15:16:49.716Z,100259.47
2023-03-10T15:19:28.241Z,100264.88
2023-03-10T15:21:55.726Z,100271.97
2023-03-10T15:24:23.433Z,100272.09
2023-03-10T15:26:51.179Z,100281.59
2023-03-10T15:29:23.598Z,100284.50
2023-03-10T15:31:51.264Z,100284.94
2023-03-10T15:34:20.649Z,100302.09
2023-03-10T15:36:51.478Z,100305.59
2023-03-10T15:39:31.101Z,100306.25
2023-03-10T15:42:00.390Z,100307.78
2023-03-10T15:44:27.781Z,100313.59
2023-03-10T15:46:55.965Z,100311.59
2023-03-10T15:49:23.584Z,100313.50
2023-03-10T15:51:50.956Z,100310.44
2023-03-10T15:54:18.427Z,100309.25
2023-03-10T15:56:45.849Z,100316.13
2023-03-10T15:59:13.750Z,100319.47
2023-03-10T16:01:42.967Z,100318.41
2023-03-10T16:04:10.578Z,100318.00
2023-03-10T16:06:37.958Z,100321.97
2023-03-10T16:09:07.865Z,100321.97
2023-03-10T16:11:37.750Z,100334.22
2023-03-10T16:14:05.341Z,100331.66
2023-03-10T16:16:33.070Z,100332.97
2023-03-10T16:19:00.540Z,100341.81
2023-03-10T16:21:28.119Z,100347.69
2023-03-10T16:23:55.885Z,100352.41
2023-03-10T16:26:24.395Z,100349.75
2023-03-10T16:28:54.441Z,100351.44
2023-03-10T16:31:26.472Z,100345.13
2023-03-10T16:33:55.860Z,100366.38
2023-03-10T16:36:26.957Z,100358.28
2023-03-10T16:38:55.207Z,100370.91
2023-03-10T16:41:24.073Z,100369.03
2023-03-10T16:43:52.145Z,100372.31
2023-03-10T16:46:25.510Z,100373.59
2023-03-10T16:48:57.039Z,100371.50
2023-03-10T16:51:38.137Z,100366.50
2023-03-10T16:54:12.402Z,100375.06
2023-03-10T16:56:42.801Z,100384.19
2023-03-10T16:59:18.393Z,100386.66
2023-03-10T17:01:47.133Z,100386.69
2023-03-10T17:04:14.840Z,100379.75
2023-03-10T17:06:44.160Z,100385.53
2023-03-10T17:09:13.577Z,100377.91
2023-03-10T17:11:46.738Z,100372.25
2023-03-10T17:14:17.327Z,100381.06
2023-03-10T17:16:46.571Z,100375.13
2023-03-10T17:19:17.930Z,100372.78
2023-03-10T17:21:51.515Z,100378.56
2023-03-10T17:24:20.441Z,100367.91
2023-03-10T17:26:48.297Z,100372.63
2023-03-10T17:29:17.265Z,100375.88
2023-03-10T17:31:48.937Z,100384.59
2023-03-10T17:34:17.604Z,100381.06
2023-03-10T17:36:45.197Z,100369.13
2023-03-10T17:39:19.064Z,100371.53
2023-03-10T17:41:48.221Z,100371.16
2023-03-10T17:44:19.181Z,100373.56
2023-03-10T17:46:52.611Z,100373.09
2023-03-10T17:49:20.032Z,100379.41
2023-03-10T17:51:47.742Z,100370.72
2023-03-10T17:54:22.785Z,100378.00
2023-03-10T17:56:50.462Z,100381.34
2023-03-10T17:59:18.460Z,100382.06
2023-03-10T18:01:46.814Z,100389.94
2023-03-10T18:04:14.375Z,100388.00
2023-03-10T18:06:43.546Z,100391.41
2023-03-10T18:09:30.829Z,100388.19
2023-03-10T18:12:02.340Z,100393.00
2023-03-10T18:14:30.385Z,100397.00
2023-03-10T18:16:57.975Z,100398.38
2023-03-10T18:19:31.759Z,100400.56
2023-03-10T18:21:59.935Z,100399.91
2023-03-10T18:24:27.423Z,100404.44
2023-03-10T18:26:56.219Z,100404.81
2023-03-10T18:29:23.945Z,100400.16
2023-03-10T18:31:57.205Z,100394.91
2023-03-10T18:34:32.678Z,100399.03
2023-03-10T18:37:00.239Z,100400.16
2023-03-10T18:39:27.927Z,100409.22
2023-03-10T18:41:55.680Z,100406.72
2023-03-10T18:44:24.130Z,100405.34
2023-03-10T18:46:51.939Z,100401.13
2023-03-10T18:49:19.622Z,100401.19
2023-03-10T18:51:47.738Z,100404.56
2023-03-10T18:54:15.159Z,100412.19
2023-03-10T18:56:43.281Z,100413.88
2023-03-10T18:59:11.274Z,100417.06
2023-03-10T19:01:38.699Z,100402.19
2023-03-10T19:04:06.404Z,100408.13
2023-03-10T19:06:34.734Z,100406.06
2023-03-10T19:09:08.733Z,100396.72
2023-03-10T19:11:38.299Z,100402.72
2023-03-10T19:14:07.043Z,100411.56
2023-03-10T19:16:39.950Z,100395.16
2023-03-10T19:19:12.032Z,100400.09
2023-03-10T19:21:40.076Z,100394.09
2023-03-10T19:24:07.924Z,100388.94
2023-03-10T19:26:36.327Z,100392.38
2023-03-10T19:29:04.705Z,100385.41
2023-03-10T19:31:34.251Z,100380.66
2023-03-10T19:34:01.950Z,100388.38
2023-03-10T19:36:29.989Z,100384.56
2023-03-10T19:38:59.370Z,100383.28
2023-03-10T19:41:27.113Z,100384.00
2023-03-10T19:43:58.262Z,100386.00
2023-03-10T19:46:25.873Z,100386.06
2023-03-10T19:48:53.496Z,100389.75
2023-03-10T19:51:25.066Z,100389.75
2023-03-10T19:53:54.002Z,100383.53
2023-03-10T19:56:22.099Z,100390.69
2023-03-10T19:58:50.652Z,100388.00
2023-03-10T20:01:26.299Z,100395.78
2023-03-10T20:03:59.522Z,100391.19
2023-03-10T20:06:27.798Z,100385.88
2023-03-10T20:08:57.544Z,100382.81
2023-03-10T20:11:26.314Z,100378.31
2023-03-10T20:13:54.496Z,100384.50
2023-03-10T20:16:24.405Z,100384.84
2023-03-10T20:18:52.128Z,100386.34
2023-03-10T20:21:19.608Z,100386.69
2023-03-10T20:23:48.733Z,100395.41
2023-03-10T20:26:16.938Z,100397.91
2023-03-10T20:28:45.331Z,100392.59
2023-03-10T20:31:22.286Z,100394.41
2023-03-10T20:33:50.684Z,100382.06
2023-03-10T20:36:19.603Z,100388.53
2023-03-10T20:38:48.574Z,100380.53
2023-03-10T20:41:19.406Z,100380.84
2023-03-10T20:43:47.385Z,100383.03
2023-03-10T20:46:17.683Z,100374.19
2023-03-10T20:48:47.769Z,100367.47
2023-03-10T20:51:15.645Z,100374.84
2023-03-10T20:53:44.151Z,100374.34
2023-03-10T20:56:12.349Z,100374.00
2023-03-10T20:58:39.796Z,100360.47
2023-03-10T21:01:15.562Z,100360.66
2023-03-10T21:03:43.260Z,100355.13
2023-03-10T21:06:15.674Z,100360.81
2023-03-10T21:08:48.591Z,100365.00
2023-03-10T21:11:19.117Z,100359.78
2023-03-10T21:13:47.666Z,100362.59
2023-03-10T21:16:15.482Z,100368.16
2023-03-10T21:18:43.111Z,100374.31
2023-03-10T21:21:13.740Z,100366.81
2023-03-10T21:23:42.066Z,100369.81
2023-03-10T21:26:15.097Z,100367.16
2023-03-10T21:28:43.132Z,100364.81
2023-03-10T21:31:11.286Z,100367.16
2023-03-10T21:33:41.893Z,100366.50
2023-03-10T21:36:17.538Z,100357.81
2023-03-10T21:38:47.002Z,100366.13
2023-03-10T21:41:17.129Z,100363.47
2023-03-10T21:43:45.922Z,100355.78
2023-03-10T21:46:14.165Z,100356.78
2023-03-10T21:48:42.014Z,100363.81
2023-03-10T21:51:13.240Z,100356.78
2023-03-10T21:53:41.595Z,100357.81
2023-03-10T21:56:09.692Z,100364.31
2023-03-10T21:58:38.471Z,100347.41
2023-03-10T22:01:12.607Z,100344.72
2023-03-10T22:03:41.522Z,100341.56
2023-03-10T22:06:09.395Z,100340.00
2023-03-10T22:08:39.135Z,100336.84
2023-03-10T22:11:08.044Z,100334.03
2023-03-10T22:13:37.545Z,100328.66
2023-03-10T22:16:08.236Z,100323.78
2023-03-10T22:18:39.058Z,100322.00
2023-03-10T22:21:06.555Z,100320.84
2023-03-10T22:23:33.919Z,100327.81
2023-03-10T22:26:01.515Z,100329.44
2023-03-10T22:28:29.348Z,100330.44
2023-03-10T22:31:01.897Z,100317.75
2023-03-10T22:33:29.964Z,100318.59
2023-03-10T22:36:02.686Z,100313.94
2023-03-10T22:38:30.822Z,100320.38
2023-03-10T22:40:58.408Z,100325.72
2023-03-10T22:43:28.052Z,100322.13
2023-03-10T22:45:59.939Z,100316.94
2023-03-10T22:48:30.076Z,100316.94
2023-03-10T22:50:58.383Z,100305.97
2023-03-10T22:53:25.742Z,100312.63
2023-03-10T22:55:53.350Z,100308.69
2023-03-10T22:58:20.724Z,100307.94
2023-03-10T23:00:48.853Z,100306.63
2023-03-10T23:03:16.893Z,100312.19
2023-03-10T23:05:45.346Z,100302.53
2023-03-10T23:08:14.267Z,100298.81
2023-03-10T23:10:42.040Z,100291.94
2023-03-10T23:13:14.187Z,100282.72
2023-03-10T23:15:43.011Z,100292.94
2023-03-10T23:18:12.743Z,100295.44
2023-03-10T23:20:44.947Z,100286.72
2023-03-10T23:23:16.564Z,100287.34
2023-03-10T23:25:50.970Z,100278.34
2023-03-10T23:28:20.981Z,100277.47
2023-03-10T23:30:49.532Z,100283.94
2023-03-10T23:33:21.649Z,100278.53
2023-03-10T23:35:53.937Z,100276.09
2023-03-10T23:38:23.597Z,100277.31
2023-03-10T23:40:51.980Z,100272.41
2023-03-10T23:43:20.258Z,100279.41
2023-03-10T23:45:53.329Z,100277.94
2023-03-10T23:48:21.236Z,100261.22
2023-03-10T23:50:48.802Z,100274.88
2023-03-10T23:53:20.688Z,100266.28
2023-03-10T23:55:48.606Z,100269.22
2023-03-10T23:58:18.251Z,100270.34
